createdAt,value
2023-10-08T00:00:21.694Z,-24.9
2023-10-08T00:05:40.865Z,-25.1
2023-10-08T00:10:59.700Z,-29.3
2023-10-08T00:16:19.752Z,-24.8
2023-10-08T00:21:38.764Z,-25
2023-10-08T00:26:57.913Z,-25
2023-10-08T00:32:17.490Z,-24.9
2023-10-08T00:37:36.870Z,-24.8
2023-10-08T00:42:56.251Z,-24.6
2023-10-08T00:48:15.745Z,-24.9
2023-10-08T00:53:34.920Z,-24.7
2023-10-08T00:58:54.003Z,-25
2023-10-08T01:04:12.928Z,-24.9
2023-10-08T01:14:51.123Z,-26.5
2023-10-08T01:20:10.767Z,-28.2
2023-10-08T01:25:29.596Z,-24.6
2023-10-08T01:30:48.818Z,-24.6
2023-10-08T01:36:08.293Z,-24.7
2023-10-08T01:41:27.592Z,-24.7
2023-10-08T01:46:46.321Z,-24.9
2023-10-08T01:52:05.950Z,-25.4
2023-10-08T01:57:25.299Z,-29.2
2023-10-08T02:02:44.789Z,-25.4
2023-10-08T02:13:23.476Z,-24.8
2023-10-08T02:18:42.970Z,-24.8
2023-10-08T02:24:02.255Z,-24.8
2023-10-08T02:29:21.293Z,-24.9
2023-10-08T02:34:40.048Z,-24.7
2023-10-08T02:39:59.333Z,-24.8
2023-10-08T02:45:18.382Z,-24.4
2023-10-08T02:55:57.373Z,-25
2023-10-08T03:01:16.496Z,-25
2023-10-08T03:06:36.114Z,-25.5
2023-10-08T03:11:55.166Z,-24.5
2023-10-08T03:17:13.915Z,-26.3
2023-10-08T03:22:32.927Z,-25.3
2023-10-08T03:27:52.694Z,-24.8
2023-10-08T03:38:31.119Z,-24.9
2023-10-08T03:43:50.564Z,-24.5
2023-10-08T03:54:29.677Z,-24.9
2023-10-08T03:59:48.742Z,-24.6
2023-10-08T04:05:08.376Z,-24.8
2023-10-08T04:10:27.543Z,-25
2023-10-08T04:21:05.429Z,-24.5
2023-10-08T04:26:25.024Z,-24.5
2023-10-08T04:37:03.251Z,-24.8
2023-10-08T04:42:22.428Z,-25
2023-10-08T04:47:41.517Z,-24.6
2023-10-08T04:53:01.143Z,-24.9
2023-10-08T04:58:20.082Z,-24.9
2023-10-08T05:03:39.487Z,-24.8
2023-10-08T05:08:58.395Z,-27.7
2023-10-08T05:14:17.359Z,-24.8
2023-10-08T05:19:36.296Z,-25
2023-10-08T05:24:55.191Z,-24.8
2023-10-08T05:30:14.643Z,-24.4
2023-10-08T05:35:34.453Z,-24.6
2023-10-08T05:40:52.884Z,-29.1
2023-10-08T05:46:12.084Z,-25.3
2023-10-08T05:51:31.722Z,-24.9
2023-10-08T05:56:51.477Z,-22.8
2023-10-08T06:02:10.184Z,-18.9
2023-10-08T06:07:30.794Z,-19.6
2023-10-08T06:12:49.565Z,-15.7
2023-10-08T06:18:08.720Z,-14.9
2023-10-08T06:23:28.084Z,-13.8
2023-10-08T06:28:47.313Z,-10.8
2023-10-08T06:34:06.183Z,-13.5
2023-10-08T06:39:24.994Z,-14.9
2023-10-08T06:44:44.075Z,-12.3
2023-10-08T06:50:03.271Z,-17
2023-10-08T06:55:22.419Z,-10.8
2023-10-08T07:00:41.273Z,3.6
2023-10-08T07:06:01.113Z,10.4
2023-10-08T07:11:20.218Z,26.9
2023-10-08T07:16:39.805Z,45.9
2023-10-08T07:21:59.151Z,42
2023-10-08T07:27:18.425Z,37.59
2023-10-08T07:32:37.476Z,49.1
2023-10-08T07:37:56.279Z,29.3
2023-10-08T07:48:34.706Z,24.5
2023-10-08T07:53:53.508Z,37.7
2023-10-08T07:59:12.736Z,42.7
2023-10-08T08:04:32.307Z,56
2023-10-08T08:09:52.304Z,44.7
2023-10-08T08:15:11.579Z,73
2023-10-08T08:20:30.818Z,68.19
2023-10-08T08:25:49.707Z,77.19
2023-10-08T08:36:28.252Z,100.6
2023-10-08T08:41:47.516Z,133.1
2023-10-08T08:47:06.963Z,71.6
2023-10-08T08:52:26.538Z,58
2023-10-08T08:57:45.085Z,46.6
2023-10-08T09:03:04.476Z,56.8
2023-10-08T09:08:24.106Z,82.3
2023-10-08T09:19:02.912Z,52.3
2023-10-08T09:24:22.374Z,53.6
2023-10-08T09:29:42.119Z,69.1
2023-10-08T09:35:01.355Z,77.5
2023-10-08T09:40:20.957Z,66.3
2023-10-08T09:45:40.136Z,74.4
2023-10-08T09:50:59.325Z,97.2
2023-10-08T09:56:18.650Z,107.4
2023-10-08T10:01:37.572Z,102
2023-10-08T10:06:56.389Z,116.7
2023-10-08T10:12:15.985Z,123.9
2023-10-08T10:17:44.647Z,156.6
2023-10-08T10:22:53.852Z,67.4
2023-10-08T10:28:12.982Z,152
2023-10-08T10:33:31.852Z,154.7
2023-10-08T10:38:50.884Z,139.39
2023-10-08T10:44:09.830Z,120
2023-10-08T10:49:29.556Z,119.4
2023-10-08T11:00:08.325Z,97.5
2023-10-08T11:05:27.373Z,160.3
2023-10-08T11:10:46.862Z,155.2
2023-10-08T11:16:05.678Z,-26.2
2023-10-08T11:21:24.255Z,-26.1
2023-10-08T11:26:42.996Z,69.5
2023-10-08T11:32:02.299Z,76
2023-10-08T11:42:41.139Z,80.1
2023-10-08T11:48:00.273Z,-25.4
2023-10-08T11:53:19.675Z,-25.5
2023-10-08T11:58:38.625Z,89.2
2023-10-08T12:09:16.741Z,74.8
2023-10-08T12:14:36.123Z,89.4
2023-10-08T12:19:55.194Z,-26.5
2023-10-08T12:25:14.471Z,-26.9
2023-10-08T12:30:33.505Z,-26.3
2023-10-08T12:41:12.234Z,99.1
2023-10-08T12:46:31.676Z,-26.9
2023-10-08T12:51:50.531Z,161.8
2023-10-08T12:57:09.261Z,-26.5
2023-10-08T13:02:28.715Z,80.69
2023-10-08T13:07:47.699Z,-26.4
2023-10-08T13:18:26.498Z,-26.8
2023-10-08T13:23:45.182Z,-26.3
2023-10-08T13:29:03.990Z,-26.8
2023-10-08T13:34:23.487Z,73.1
2023-10-08T13:39:42.974Z,64.69
2023-10-08T13:45:02.277Z,65.9
2023-10-08T13:50:21.080Z,-26.7
2023-10-08T13:55:40.730Z,-26.5
2023-10-08T14:00:59.867Z,-26.3
2023-10-08T14:06:18.766Z,-26.8
2023-10-08T14:11:37.610Z,-26.3
2023-10-08T14:16:57.124Z,-26.1
2023-10-08T14:22:16.882Z,-26.1
2023-10-08T14:27:35.865Z,-25.4
2023-10-08T14:32:54.633Z,-26.2
2023-10-08T14:38:13.617Z,-26.6
2023-10-08T14:43:32.982Z,-25.9
2023-10-08T14:48:52.326Z,40.9
2023-10-08T14:54:11.714Z,-25.7
2023-10-08T14:59:31.002Z,-26.2
2023-10-08T15:05:14.971Z,-26.7
2023-10-08T15:10:34.337Z,-27
2023-10-08T15:15:53.585Z,-26.3
2023-10-08T15:21:12.154Z,-26.1
2023-10-08T15:31:50.623Z,10.3
2023-10-08T15:37:09.577Z,1.5
2023-10-08T15:42:28.323Z,-2.9
2023-10-08T15:47:47.286Z,-4.8
2023-10-08T15:53:06.076Z,-12.6
2023-10-08T15:58:25.483Z,-19.79
2023-10-08T16:03:44.796Z,-19.4
2023-10-08T16:09:03.749Z,-20.2
2023-10-08T16:14:23.423Z,-23.9
2023-10-08T16:19:42.809Z,-24.3
2023-10-08T16:25:01.553Z,-24.5
2023-10-08T16:30:21.182Z,-26.4
2023-10-08T16:40:59.382Z,-25.7
2023-10-08T16:46:18.546Z,-25.9
2023-10-08T16:51:37.235Z,-25.3
2023-10-08T16:56:56.784Z,-25.3
2023-10-08T17:02:15.777Z,-25
2023-10-08T17:07:34.526Z,-25.4
2023-10-08T17:12:54.433Z,-25.6
2023-10-08T17:18:13.056Z,-24.4
2023-10-08T17:23:32.486Z,-25.1
2023-10-08T17:28:51.799Z,-24.9
2023-10-08T17:34:10.869Z,-25.6
2023-10-08T17:39:29.920Z,-25.1
2023-10-08T17:44:49.089Z,-24.6
2023-10-08T17:55:27.365Z,-25.6
2023-10-08T18:00:47.062Z,-24.7
2023-10-08T18:06:06.761Z,-24.5
2023-10-08T18:11:25.578Z,-24.4
2023-10-08T18:16:45.119Z,-24.2
2023-10-08T18:22:04.347Z,-24.8
2023-10-08T18:27:23.252Z,-24.7
2023-10-08T18:32:42.252Z,-25
2023-10-08T18:38:01.772Z,-25.6
2023-10-08T18:43:20.807Z,-24.4
2023-10-08T18:53:58.867Z,-25.4
2023-10-08T19:04:36.871Z,-24.5
2023-10-08T19:09:56.322Z,-24.6
2023-10-08T19:15:15.712Z,-24.9
2023-10-08T19:20:34.784Z,-24.8
2023-10-08T19:25:53.744Z,-24.6
2023-10-08T19:31:13.282Z,-25.3
2023-10-08T19:36:32.569Z,-24.6
2023-10-08T19:41:52.122Z,-24.6
2023-10-08T19:47:11.769Z,-24.5
2023-10-08T19:52:31.124Z,-27.3
2023-10-08T19:57:50.700Z,-24.9
2023-10-08T20:03:09.830Z,-24.5
2023-10-08T20:08:28.838Z,-25.4
2023-10-08T20:13:48.099Z,-24.6
2023-10-08T20:19:07.333Z,-25
2023-10-08T20:24:26.513Z,-24.9
2023-10-08T20:29:45.720Z,-26.6
2023-10-08T20:35:04.460Z,-24.5
2023-10-08T20:40:23.263Z,-24.8
2023-10-08T20:45:42.534Z,-24.6
2023-10-08T20:56:20.660Z,-24.8
2023-10-08T21:01:40.306Z,-24.5
2023-10-08T21:12:18.008Z,-24.5
2023-10-08T21:17:36.930Z,-24.3
2023-10-08T21:22:56.151Z,-24.1
2023-10-08T21:28:15.336Z,-25.1
2023-10-08T21:33:34.145Z,-24.8
2023-10-08T21:38:52.816Z,-25
2023-10-08T21:44:11.732Z,-25
2023-10-08T21:54:50.161Z,-24.7
2023-10-08T22:00:09.451Z,-24.8
2023-10-08T22:05:28.395Z,-24.8
2023-10-08T22:10:47.727Z,-25.1
2023-10-08T22:16:06.556Z,-24.4
2023-10-08T22:21:26.273Z,-24.3
2023-10-08T22:26:45.033Z,-24.3
2023-10-08T22:32:04.480Z,-24.4
2023-10-08T22:37:23.248Z,-24.6
2023-10-08T22:48:01.435Z,-24.5
2023-10-08T22:53:20.548Z,-23.9
2023-10-08T22:58:39.799Z,-24.4
2023-10-08T23:03:59.157Z,-24.2
2023-10-08T23:09:17.957Z,-24.5
2023-10-08T23:14:36.661Z,-24.2
2023-10-08T23:19:56.135Z,-24.4
2023-10-08T23:25:15.495Z,-24.8
2023-10-08T23:35:54.597Z,-24.9
2023-10-08T23:41:14.143Z,-23.8
2023-10-08T23:46:33.649Z,-24.3
2023-10-08T23:51:53.623Z,-24.4
2023-10-08T23:57:11.563Z,-24.6
